createdAt,value
2023-05-14T00:00:50.411Z,9.50
2023-05-14T00:03:17.086Z,9.43
2023-05-14T00:05:43.734Z,10.13
2023-05-14T00:08:10.259Z,9.13
2023-05-14T00:10:36.773Z,10.13
2023-05-14T00:13:03.257Z,10.27
2023-05-14T00:15:30.924Z,9.73
2023-05-14T00:17:58.839Z,10.13
2023-05-14T00:20:25.553Z,9.67
2023-05-14T00:22:52.154Z,9.27
2023-05-14T00:25:18.628Z,9.18
2023-05-14T00:27:45.465Z,9.63
2023-05-14T00:30:12.369Z,9.15
2023-05-14T00:32:38.833Z,9.80
2023-05-14T00:35:05.901Z,9.10
2023-05-14T00:37:32.343Z,10.32
2023-05-14T00:39:58.832Z,10.20
2023-05-14T00:42:26.664Z,10.50
2023-05-14T00:44:53.663Z,9.27
2023-05-14T00:47:21.124Z,9.57
2023-05-14T00:49:47.588Z,10.48
2023-05-14T00:52:15.434Z,9.25
2023-05-14T00:54:42.822Z,9.07
2023-05-14T00:57:09.445Z,9.13
2023-05-14T00:59:36.151Z,9.68
2023-05-14T01:02:02.768Z,9.73
2023-05-14T01:04:29.651Z,8.82
2023-05-14T01:07:20.624Z,8.65
2023-05-14T01:09:56.596Z,8.80
2023-05-14T01:12:55.677Z,9.25
2023-05-14T01:15:26.709Z,9.48
2023-05-14T01:18:09.847Z,8.98
2023-05-14T01:20:36.755Z,8.32
2023-05-14T01:23:03.776Z,8.60
2023-05-14T01:25:31.436Z,8.85
2023-05-14T01:28:02.833Z,8.90
2023-05-14T01:30:36.687Z,8.38
2023-05-14T01:33:10.021Z,8.77
2023-05-14T01:35:36.862Z,9.40
2023-05-14T01:38:12.359Z,9.52
2023-05-14T01:40:39.714Z,9.80
2023-05-14T01:43:06.585Z,9.10
2023-05-14T01:45:35.789Z,9.27
2023-05-14T01:48:02.488Z,8.80
2023-05-14T01:50:29.097Z,9.68
2023-05-14T01:52:56.731Z,7.93
2023-05-14T01:55:26.938Z,9.63
2023-05-14T01:57:54.242Z,9.02
2023-05-14T02:00:22.311Z,9.00
2023-05-14T02:02:48.961Z,10.35
2023-05-14T02:05:15.542Z,9.15
2023-05-14T02:07:41.969Z,8.93
2023-05-14T02:10:09.026Z,9.18
2023-05-14T02:12:35.787Z,9.03
2023-05-14T02:15:03.744Z,8.88
2023-05-14T02:17:30.356Z,8.35
2023-05-14T02:19:56.814Z,9.52
2023-05-14T02:22:23.398Z,8.85
2023-05-14T02:24:51.504Z,8.80
2023-05-14T02:27:18.166Z,8.80
2023-05-14T02:29:45.019Z,9.43
2023-05-14T02:32:11.572Z,9.68
2023-05-14T02:34:38.700Z,8.93
2023-05-14T02:37:05.343Z,8.80
2023-05-14T02:39:31.891Z,9.27
2023-05-14T02:41:58.380Z,8.50
2023-05-14T02:44:24.854Z,8.45
2023-05-14T02:46:51.796Z,9.15
2023-05-14T02:49:18.260Z,8.90
2023-05-14T02:51:44.731Z,8.52
2023-05-14T02:54:11.274Z,9.43
2023-05-14T02:56:39.039Z,9.45
2023-05-14T02:59:05.651Z,8.65
2023-05-14T03:01:32.647Z,8.97
2023-05-14T03:03:59.735Z,9.27
2023-05-14T03:06:26.308Z,8.45
2023-05-14T03:08:52.787Z,8.10
2023-05-14T03:11:19.294Z,8.25
2023-05-14T03:13:45.829Z,8.60
2023-05-14T03:16:12.995Z,9.20
2023-05-14T03:18:39.561Z,8.85
2023-05-14T03:21:06.123Z,8.43
2023-05-14T03:23:34.981Z,8.80
2023-05-14T03:26:02.112Z,9.43
2023-05-14T03:28:28.590Z,8.70
2023-05-14T03:30:55.067Z,9.18
2023-05-14T03:33:22.698Z,8.93
2023-05-14T03:35:49.233Z,9.88
2023-05-14T03:38:15.718Z,8.73
2023-05-14T03:40:42.524Z,9.30
2023-05-14T03:43:08.960Z,8.35
2023-05-14T03:45:35.686Z,8.70
2023-05-14T03:48:02.381Z,8.98
2023-05-14T03:50:29.059Z,8.87
2023-05-14T03:52:55.564Z,8.80
2023-05-14T03:55:22.185Z,9.82
2023-05-14T03:57:48.762Z,9.05
2023-05-14T04:00:15.619Z,8.65
2023-05-14T04:02:42.595Z,8.17
2023-05-14T04:05:09.608Z,8.48
2023-05-14T04:07:36.546Z,8.63
2023-05-14T04:10:04.754Z,9.38
2023-05-14T04:12:31.485Z,8.15
2023-05-14T04:14:58.539Z,7.97
2023-05-14T04:17:25.740Z,7.85
2023-05-14T04:19:52.345Z,8.38
2023-05-14T04:22:18.907Z,8.73
2023-05-14T04:24:45.943Z,8.07
2023-05-14T04:27:19.961Z,8.13
2023-05-14T04:29:46.577Z,8.48
2023-05-14T04:32:13.418Z,7.43
2023-05-14T04:34:40.107Z,8.48
2023-05-14T04:37:06.815Z,7.00
2023-05-14T04:39:33.513Z,7.90
2023-05-14T04:42:00.003Z,7.03
2023-05-14T04:44:26.448Z,7.53
2023-05-14T04:46:52.963Z,7.13
2023-05-14T04:49:19.460Z,7.88
2023-05-14T04:51:46.029Z,7.00
2023-05-14T04:54:12.592Z,7.80
2023-05-14T04:56:39.286Z,7.15
2023-05-14T04:59:06.342Z,6.82
2023-05-14T05:01:33.050Z,7.40
2023-05-14T05:03:59.662Z,7.37
2023-05-14T05:06:26.501Z,6.72
2023-05-14T05:08:53.001Z,7.75
2023-05-14T05:11:19.469Z,6.70
2023-05-14T05:13:46.080Z,7.25
2023-05-14T05:16:12.821Z,6.33
2023-05-14T05:18:39.438Z,6.63
2023-05-14T05:21:06.852Z,7.18
2023-05-14T05:23:33.478Z,6.47
2023-05-14T05:25:59.871Z,6.38
2023-05-14T05:28:26.310Z,6.90
2023-05-14T05:30:53.073Z,6.63
2023-05-14T05:33:21.542Z,6.80
2023-05-14T05:35:48.899Z,6.28
2023-05-14T05:38:16.256Z,6.72
2023-05-14T05:40:43.089Z,6.83
2023-05-14T05:43:09.759Z,5.78
2023-05-14T05:45:36.235Z,5.95
2023-05-14T05:48:02.917Z,6.40
2023-05-14T05:50:31.666Z,6.07
2023-05-14T05:52:59.405Z,6.33
2023-05-14T05:55:25.943Z,5.90
2023-05-14T05:57:52.614Z,6.72
2023-05-14T06:00:19.595Z,6.35
2023-05-14T06:02:46.843Z,6.53
2023-05-14T06:05:13.650Z,5.83
2023-05-14T06:07:40.434Z,6.70
2023-05-14T06:10:07.522Z,5.60
2023-05-14T06:12:34.153Z,6.38
2023-05-14T06:15:00.732Z,6.15
2023-05-14T06:17:27.297Z,5.80
2023-05-14T06:19:53.857Z,6.10
2023-05-14T06:22:20.436Z,6.25
2023-05-14T06:24:47.790Z,5.85
2023-05-14T06:27:14.267Z,6.03
2023-05-14T06:29:40.798Z,5.83
2023-05-14T06:32:07.949Z,6.40
2023-05-14T06:34:34.736Z,5.60
2023-05-14T06:37:03.576Z,6.13
2023-05-14T06:39:30.106Z,5.70
2023-05-14T06:41:56.576Z,6.57
2023-05-14T06:44:23.003Z,6.55
2023-05-14T06:46:49.506Z,5.65
2023-05-14T06:49:16.293Z,5.60
2023-05-14T06:51:42.986Z,6.13
2023-05-14T06:54:09.663Z,5.53
2023-05-14T06:56:36.136Z,6.18
2023-05-14T06:59:02.837Z,5.72
2023-05-14T07:01:29.429Z,5.55
2023-05-14T07:03:56.359Z,6.05
2023-05-14T07:06:23.550Z,5.23
2023-05-14T07:08:49.988Z,5.18
2023-05-14T07:11:16.588Z,5.22
2023-05-14T07:13:43.308Z,5.28
2023-05-14T07:16:10.559Z,5.07
2023-05-14T07:18:37.164Z,5.20
2023-05-14T07:21:06.655Z,5.65
2023-05-14T07:23:36.232Z,4.90
2023-05-14T07:26:03.686Z,5.30
2023-05-14T07:28:32.570Z,5.55
2023-05-14T07:30:59.529Z,4.93
2023-05-14T07:33:26.564Z,4.32
2023-05-14T07:35:54.427Z,5.13
2023-05-14T07:38:21.312Z,5.10
2023-05-14T07:40:47.843Z,5.07
2023-05-14T07:43:14.680Z,5.97
2023-05-14T07:45:41.553Z,5.93
2023-05-14T07:48:08.616Z,4.47
2023-05-14T07:50:35.602Z,5.53
2023-05-14T07:53:02.077Z,5.60
2023-05-14T07:55:28.768Z,6.80
2023-05-14T07:57:55.232Z,5.47
2023-05-14T08:00:21.960Z,5.45
2023-05-14T08:02:49.325Z,5.95
2023-05-14T08:05:16.629Z,5.63
2023-05-14T08:07:43.458Z,5.77
2023-05-14T08:10:10.618Z,5.95
2023-05-14T08:12:37.098Z,6.07
2023-05-14T08:15:04.092Z,6.22
2023-05-14T08:17:30.598Z,6.15
2023-05-14T08:19:57.104Z,5.20
2023-05-14T08:22:23.511Z,5.57
2023-05-14T08:24:50.023Z,5.63
2023-05-14T08:27:19.238Z,6.30
2023-05-14T08:29:45.700Z,5.88
2023-05-14T08:32:22.096Z,6.10
2023-05-14T08:34:50.691Z,5.70
2023-05-14T08:37:17.413Z,5.93
2023-05-14T08:39:43.896Z,6.15
2023-05-14T08:42:12.838Z,6.18
2023-05-14T08:44:47.745Z,5.27
2023-05-14T08:47:16.250Z,5.43
2023-05-14T08:49:46.332Z,5.90
2023-05-14T08:52:13.579Z,5.53
2023-05-14T08:54:40.449Z,5.68
2023-05-14T08:57:10.051Z,5.47
2023-05-14T08:59:36.794Z,5.65
2023-05-14T09:02:06.418Z,5.45
2023-05-14T09:04:34.080Z,5.40
2023-05-14T09:07:02.139Z,5.13
2023-05-14T09:09:29.019Z,5.23
2023-05-14T09:11:55.665Z,5.05
2023-05-14T09:14:23.161Z,5.93
2023-05-14T09:16:51.168Z,5.65
2023-05-14T09:19:19.217Z,4.82
2023-05-14T09:21:47.782Z,4.60
2023-05-14T09:24:25.520Z,4.88
2023-05-14T09:26:53.814Z,4.93
2023-05-14T09:29:20.493Z,4.70
2023-05-14T09:31:51.415Z,5.38
2023-05-14T09:34:47.594Z,4.40
2023-05-14T09:37:14.190Z,4.47
2023-05-14T09:39:40.742Z,4.20
2023-05-14T09:42:07.388Z,5.50
2023-05-14T09:44:36.266Z,5.15
2023-05-14T09:47:04.351Z,4.57
2023-05-14T09:49:31.249Z,4.72
2023-05-14T09:51:57.992Z,4.97
2023-05-14T09:54:26.489Z,5.00
2023-05-14T09:56:55.486Z,5.13
2023-05-14T09:59:22.398Z,3.93
2023-05-14T10:01:50.084Z,5.15
2023-05-14T10:04:17.466Z,5.03
2023-05-14T10:06:48.181Z,5.00
2023-05-14T10:09:19.636Z,4.40
2023-05-14T10:11:52.921Z,4.53
2023-05-14T10:14:40.453Z,4.70
2023-05-14T10:17:07.948Z,4.28
2023-05-14T10:19:35.563Z,4.47
2023-05-14T10:22:07.807Z,5.00
2023-05-14T10:24:34.996Z,4.10
2023-05-14T10:27:02.035Z,4.82
2023-05-14T10:29:37.435Z,5.15
2023-05-14T10:32:06.578Z,5.20
2023-05-14T10:34:46.296Z,4.80
2023-05-14T10:37:15.745Z,3.97
2023-05-14T10:40:14.893Z,4.55
2023-05-14T10:42:43.622Z,4.63
2023-05-14T10:45:12.600Z,4.30
2023-05-14T10:47:41.942Z,4.70
2023-05-14T10:50:10.905Z,4.80
2023-05-14T10:52:37.845Z,4.43
2023-05-14T10:55:09.307Z,3.95
2023-05-14T10:57:40.072Z,4.07
2023-05-14T11:00:09.124Z,3.90
2023-05-14T11:02:37.706Z,4.23
2023-05-14T11:05:13.906Z,4.47
2023-05-14T11:07:43.585Z,4.20
2023-05-14T11:10:15.459Z,4.18
2023-05-14T11:12:46.806Z,4.50
2023-05-14T11:15:17.594Z,3.87
2023-05-14T11:17:45.839Z,4.50
2023-05-14T11:20:12.960Z,4.43
2023-05-14T11:22:41.857Z,4.03
2023-05-14T11:25:09.387Z,4.63
2023-05-14T11:27:37.950Z,3.67
2023-05-14T11:30:05.197Z,4.22
2023-05-14T11:32:32.821Z,3.55
2023-05-14T11:34:59.410Z,3.70
2023-05-14T11:37:26.086Z,3.67
2023-05-14T11:39:54.256Z,3.30
2023-05-14T11:42:21.738Z,4.13
2023-05-14T11:44:49.642Z,4.20
2023-05-14T11:47:17.641Z,4.70
2023-05-14T11:49:44.542Z,4.22
2023-05-14T11:52:14.207Z,3.53
2023-05-14T11:54:42.201Z,3.70
2023-05-14T11:57:11.461Z,3.78
2023-05-14T11:59:38.958Z,4.53
2023-05-14T12:02:08.593Z,4.30
2023-05-14T12:04:35.544Z,3.70
2023-05-14T12:07:09.018Z,3.15
2023-05-14T12:09:41.990Z,4.13
2023-05-14T12:12:11.447Z,3.97
2023-05-14T12:14:41.547Z,3.63
2023-05-14T12:17:23.652Z,3.50
2023-05-14T12:19:52.157Z,3.13
2023-05-14T12:22:22.570Z,3.08
2023-05-14T12:27:40.109Z,3.83
2023-05-14T12:38:12.620Z,3.45
2023-05-14T12:40:39.086Z,3.42
2023-05-14T12:43:05.580Z,3.30
2023-05-14T12:45:32.201Z,3.03
2023-05-14T12:47:58.829Z,3.53
2023-05-14T12:50:25.820Z,3.63
2023-05-14T12:52:52.494Z,3.67
2023-05-14T12:55:18.970Z,3.07
2023-05-14T12:57:45.578Z,3.28
2023-05-14T13:00:14.196Z,3.50
2023-05-14T13:02:42.659Z,3.58
2023-05-14T13:05:11.206Z,3.28
2023-05-14T13:07:38.506Z,3.20
2023-05-14T13:10:05.717Z,3.15
2023-05-14T13:12:32.531Z,3.13
2023-05-14T13:14:58.965Z,3.35
2023-05-14T13:17:25.509Z,2.80
2023-05-14T13:19:51.972Z,3.10
2023-05-14T13:22:18.979Z,3.33
2023-05-14T13:24:45.701Z,3.53
2023-05-14T13:27:12.538Z,3.42
2023-05-14T13:29:38.967Z,3.80
2023-05-14T13:32:05.868Z,3.23
2023-05-14T13:34:32.384Z,3.10
2023-05-14T13:36:58.855Z,3.15
2023-05-14T13:39:27.351Z,3.47
2023-05-14T13:41:57.086Z,3.40
2023-05-14T13:44:24.281Z,3.30
2023-05-14T13:46:51.017Z,3.83
2023-05-14T13:49:17.710Z,4.13
2023-05-14T13:51:44.834Z,3.22
2023-05-14T13:54:11.357Z,3.67
2023-05-14T13:56:37.918Z,2.80
2023-05-14T13:59:05.223Z,3.65
2023-05-14T14:01:31.871Z,3.60
2023-05-14T14:03:58.493Z,3.55
2023-05-14T14:06:27.159Z,3.40
2023-05-14T14:08:54.069Z,3.10
2023-05-14T14:11:20.842Z,3.25
2023-05-14T14:13:47.431Z,3.45
2023-05-14T14:16:13.987Z,2.83
2023-05-14T14:18:40.474Z,3.45
2023-05-14T14:21:07.013Z,3.67
2023-05-14T14:23:33.632Z,3.40
2023-05-14T14:26:00.875Z,3.70
2023-05-14T14:28:27.513Z,3.30
2023-05-14T14:30:53.947Z,3.30
2023-05-14T14:33:20.689Z,3.07
2023-05-14T14:35:47.223Z,3.38
2023-05-14T14:38:14.126Z,3.42
2023-05-14T14:40:40.714Z,3.17
2023-05-14T14:43:07.513Z,3.38
2023-05-14T14:45:34.233Z,3.60
2023-05-14T14:48:23.670Z,3.63
2023-05-14T14:50:50.559Z,3.47
2023-05-14T14:53:17.056Z,3.10
2023-05-14T14:55:43.580Z,3.67
2023-05-14T14:58:10.044Z,2.83
2023-05-14T15:00:36.558Z,3.33
2023-05-14T15:03:03.791Z,3.55
2023-05-14T15:05:30.256Z,3.00
2023-05-14T15:07:56.695Z,2.75
2023-05-14T15:10:23.561Z,3.20
2023-05-14T15:12:50.038Z,3.20
2023-05-14T15:15:16.504Z,3.40
2023-05-14T15:17:43.011Z,3.35
2023-05-14T15:20:10.120Z,3.45
2023-05-14T15:22:36.637Z,3.30
2023-05-14T15:25:04.204Z,3.30
2023-05-14T15:27:30.689Z,3.53
2023-05-14T15:29:57.226Z,3.38
2023-05-14T15:32:25.814Z,3.47
2023-05-14T15:34:52.565Z,3.50
2023-05-14T15:37:19.067Z,3.30
2023-05-14T15:39:45.578Z,3.33
2023-05-14T15:42:12.479Z,3.10
2023-05-14T15:44:39.423Z,3.35
2023-05-14T15:47:06.276Z,3.10
2023-05-14T15:49:32.705Z,2.97
2023-05-14T15:52:05.595Z,3.35
2023-05-14T15:54:32.356Z,2.55
2023-05-14T15:56:58.764Z,3.42
2023-05-14T15:59:25.364Z,3.33
2023-05-14T16:01:51.995Z,3.47
2023-05-14T16:04:18.735Z,3.17
2023-05-14T16:06:45.451Z,3.63
2023-05-14T16:09:12.060Z,3.92
2023-05-14T16:11:38.546Z,3.70
2023-05-14T16:14:05.046Z,3.75
2023-05-14T16:16:31.735Z,3.50
2023-05-14T16:18:59.115Z,3.33
2023-05-14T16:21:25.732Z,3.88
2023-05-14T16:23:52.194Z,3.50
2023-05-14T16:26:18.652Z,3.33
2023-05-14T16:28:45.115Z,3.60
2023-05-14T16:31:11.510Z,3.90
2023-05-14T16:33:38.030Z,3.95
2023-05-14T16:36:04.851Z,3.50
2023-05-14T16:38:31.348Z,3.38
2023-05-14T16:40:58.176Z,4.05
2023-05-14T16:43:24.737Z,4.00
2023-05-14T16:45:51.289Z,4.47
2023-05-14T16:48:18.192Z,3.30
2023-05-14T16:50:44.677Z,3.45
2023-05-14T16:53:11.190Z,3.80
2023-05-14T16:55:37.679Z,3.60
2023-05-14T16:58:04.180Z,3.88
2023-05-14T17:00:30.616Z,3.77
2023-05-14T17:02:57.299Z,3.80
2023-05-14T17:05:24.439Z,3.85
2023-05-14T17:07:51.153Z,4.10
2023-05-14T17:10:17.695Z,3.88
2023-05-14T17:12:44.428Z,3.67
2023-05-14T17:15:12.083Z,3.95
2023-05-14T17:17:38.753Z,4.43
2023-05-14T17:22:32.857Z,5.05
2023-05-14T17:24:59.635Z,5.10
2023-05-14T17:27:26.401Z,5.30
2023-05-14T17:29:52.901Z,5.18
2023-05-14T17:32:19.482Z,5.38
2023-05-14T17:34:46.284Z,5.25
2023-05-14T17:37:13.089Z,5.00
2023-05-14T17:39:39.626Z,5.43
2023-05-14T17:42:06.721Z,5.28
2023-05-14T17:44:34.809Z,5.25
2023-05-14T17:47:04.646Z,5.10
2023-05-14T17:49:31.340Z,5.50
2023-05-14T17:51:59.374Z,5.00
2023-05-14T17:54:26.096Z,5.10
2023-05-14T17:56:53.021Z,5.07
2023-05-14T17:59:24.129Z,4.93
2023-05-14T18:01:51.039Z,5.10
2023-05-14T18:04:17.617Z,5.20
2023-05-14T18:06:46.101Z,4.72
2023-05-14T18:09:12.657Z,4.97
2023-05-14T18:11:39.550Z,4.95
2023-05-14T18:14:06.122Z,4.90
2023-05-14T18:16:35.016Z,5.40
2023-05-14T18:19:01.594Z,4.50
2023-05-14T18:21:28.444Z,4.82
2023-05-14T18:23:54.913Z,4.28
2023-05-14T18:26:24.324Z,3.97
2023-05-14T18:28:51.581Z,4.45
2023-05-14T18:31:18.222Z,3.83
2023-05-14T18:33:44.677Z,3.70
2023-05-14T18:36:11.707Z,3.97
2023-05-14T18:38:38.296Z,4.40
2023-05-14T18:41:04.837Z,4.05
2023-05-14T18:43:31.410Z,4.18
2023-05-14T18:45:58.887Z,3.63
2023-05-14T18:48:26.388Z,3.65
2023-05-14T18:50:52.860Z,4.43
2023-05-14T18:53:19.336Z,4.10
2023-05-14T18:55:45.903Z,4.18
2023-05-14T18:58:12.604Z,3.63
2023-05-14T19:00:39.071Z,3.63
2023-05-14T19:03:05.692Z,3.57
2023-05-14T19:05:32.289Z,4.50
2023-05-14T19:07:58.778Z,4.00
2023-05-14T19:10:25.661Z,4.70
2023-05-14T19:12:52.421Z,4.72
2023-05-14T19:15:20.852Z,4.43
2023-05-14T19:17:47.945Z,4.07
2023-05-14T19:20:14.533Z,4.35
2023-05-14T19:22:41.092Z,3.88
2023-05-14T19:25:08.376Z,5.00
2023-05-14T19:27:37.011Z,4.20
2023-05-14T19:30:03.934Z,4.93
2023-05-14T19:32:30.510Z,5.05
2023-05-14T19:34:57.017Z,4.70
2023-05-14T19:37:23.934Z,5.60
2023-05-14T19:39:50.417Z,3.60
2023-05-14T19:42:17.166Z,4.57
2023-05-14T19:44:44.092Z,4.10
2023-05-14T19:47:10.820Z,4.35
2023-05-14T19:49:37.383Z,4.60
2023-05-14T19:52:04.051Z,3.90
2023-05-14T19:54:30.837Z,4.90
2023-05-14T19:56:57.296Z,4.38
2023-05-14T19:59:24.827Z,4.40
2023-05-14T20:01:51.879Z,5.43
2023-05-14T20:04:19.768Z,4.60
2023-05-14T20:06:47.154Z,4.90
2023-05-14T20:09:13.785Z,5.32
2023-05-14T20:11:40.620Z,4.43
2023-05-14T20:14:07.152Z,5.50
2023-05-14T20:16:33.647Z,5.20
2023-05-14T20:19:00.308Z,5.03
2023-05-14T20:21:26.773Z,5.28
2023-05-14T20:23:53.275Z,5.35
2023-05-14T20:26:19.977Z,5.63
2023-05-14T20:28:46.446Z,5.30
2023-05-14T20:31:13.085Z,4.53
2023-05-14T20:33:39.664Z,5.22
2023-05-14T20:36:06.654Z,5.70
2023-05-14T20:38:34.853Z,5.20
2023-05-14T20:41:01.384Z,5.70
2023-05-14T20:43:27.880Z,5.45
2023-05-14T20:45:58.848Z,5.72
2023-05-14T20:48:25.620Z,5.68
2023-05-14T20:50:52.099Z,5.82
2023-05-14T20:53:18.685Z,4.73
2023-05-14T20:55:45.364Z,5.63
2023-05-14T20:58:11.757Z,5.13
2023-05-14T21:00:39.189Z,5.00
2023-05-14T21:03:05.946Z,4.78
2023-05-14T21:05:32.637Z,4.57
2023-05-14T21:07:59.053Z,4.88
2023-05-14T21:10:25.936Z,5.68
2023-05-14T21:12:52.686Z,4.72
2023-05-14T21:15:19.212Z,5.30
2023-05-14T21:17:45.867Z,4.87
2023-05-14T21:20:13.551Z,4.90
2023-05-14T21:22:40.096Z,5.00
2023-05-14T21:25:06.825Z,4.88
2023-05-14T21:27:33.662Z,4.53
2023-05-14T21:30:00.219Z,4.73
2023-05-14T21:32:26.821Z,5.85
2023-05-14T21:34:53.340Z,4.75
2023-05-14T21:37:21.601Z,4.78
2023-05-14T21:39:48.078Z,4.93
2023-05-14T21:42:16.070Z,5.57
2023-05-14T21:44:42.619Z,4.82
2023-05-14T21:47:09.118Z,4.28
2023-05-14T21:49:35.710Z,4.00
2023-05-14T21:52:02.253Z,5.38
2023-05-14T21:54:28.671Z,4.60
2023-05-14T21:56:55.423Z,4.82
2023-05-14T21:59:22.001Z,5.55
2023-05-14T22:02:05.419Z,4.68
2023-05-14T22:04:33.115Z,4.88
2023-05-14T22:07:00.005Z,5.30
2023-05-14T22:09:26.512Z,4.78
2023-05-14T22:11:53.016Z,5.78
2023-05-14T22:14:19.569Z,5.18
2023-05-14T22:16:46.165Z,5.25
2023-05-14T22:19:12.678Z,4.90
2023-05-14T22:21:39.412Z,4.18
2023-05-14T22:24:06.137Z,4.95
2023-05-14T22:26:32.637Z,5.30
2023-05-14T22:28:59.245Z,4.85
2023-05-14T22:31:26.055Z,4.07
2023-05-14T22:33:53.037Z,4.47
2023-05-14T22:36:19.517Z,4.70
2023-05-14T22:38:46.173Z,5.53
2023-05-14T22:41:12.747Z,5.95
2023-05-14T22:43:39.242Z,5.37
2023-05-14T22:46:06.183Z,5.43
2023-05-14T22:48:32.781Z,5.50
2023-05-14T22:50:59.300Z,5.00
2023-05-14T22:53:25.935Z,4.88
2023-05-14T22:55:52.538Z,5.13
2023-05-14T22:58:19.007Z,6.10
2023-05-14T23:00:45.533Z,4.93
2023-05-14T23:03:12.384Z,6.20
2023-05-14T23:05:39.201Z,6.38
2023-05-14T23:08:05.991Z,6.10
2023-05-14T23:10:32.956Z,6.95
2023-05-14T23:12:59.448Z,6.55
2023-05-14T23:15:26.668Z,6.93
2023-05-14T23:17:53.352Z,6.13
2023-05-14T23:20:19.950Z,5.70
2023-05-14T23:22:46.470Z,6.05
2023-05-14T23:25:13.029Z,6.20
2023-05-14T23:27:39.601Z,6.30
2023-05-14T23:30:06.818Z,5.75
2023-05-14T23:32:33.417Z,7.60
2023-05-14T23:34:59.887Z,6.68
2023-05-14T23:37:26.374Z,6.60
2023-05-14T23:39:53.365Z,7.32
2023-05-14T23:42:20.140Z,6.38
2023-05-14T23:44:46.913Z,6.50
2023-05-14T23:47:13.574Z,6.03
2023-05-14T23:49:40.948Z,6.05
2023-05-14T23:52:07.760Z,5.50
2023-05-14T23:54:34.346Z,5.40
2023-05-14T23:57:00.785Z,5.80
2023-05-14T23:59:27.383Z,6.25
